Time;durP1;ratioP1;P1;durP2;ratioP2;P2;SDS_P1;SDS_P2;PMS_P1;PMS_P2;Temp;Humidity;BMP_temperature;BMP_pressure;BME280_temperature;BME280_humidity;BME280_pressure;Samples;Min_cycle;Max_cycle;Signal;HPM_P1;HPM_P2
2022/08/13 00:02:10;;;;;;;4.82;1.25;;;;;;;18.55;42.48;101885.72;4995729;28;20105;-70
2022/08/13 00:04:39;;;;;;;1.85;1.55;;;;;;;18.54;42.52;101886.66;4996346;28;20030;-72
2022/08/13 00:07:07;;;;;;;3.25;1.50;;;;;;;18.54;42.46;101889.31;4998172;28;20034;-71
2022/08/13 00:09:39;;;;;;;2.03;1.35;;;;;;;18.57;42.27;101891.78;4998329;28;20536;-70
2022/08/13 00:14:53;;;;;;;2.13;1.27;;;;;;;18.46;42.21;101880.03;5024318;28;20038;-72
2022/08/13 00:17:21;;;;;;;1.77;1.23;;;;;;;18.45;42.16;101882.75;5025599;28;20054;-73
2022/08/13 00:19:49;;;;;;;2.45;1.65;;;;;;;18.45;42.10;101883.63;5025079;28;20030;-72
2022/08/13 00:22:19;;;;;;;4.85;2.10;;;;;;;18.31;42.40;101880.91;5017704;28;20046;-72
2022/08/13 00:24:45;;;;;;;3.42;1.60;;;;;;;18.31;42.27;101888.84;4996276;28;20049;-71
2022/08/13 00:27:11;;;;;;;2.72;1.60;;;;;;;18.23;42.43;101884.00;4999525;28;20458;-73
2022/08/13 00:29:38;;;;;;;5.03;1.60;;;;;;;18.21;42.45;101885.03;5017307;28;20033;-74
2022/08/13 00:32:04;;;;;;;3.72;1.30;;;;;;;18.23;42.44;101883.16;5028691;28;20065;-67
2022/08/13 00:34:30;;;;;;;3.33;1.80;;;;;;;18.20;42.58;101881.50;5012151;28;20513;-74
2022/08/13 00:36:55;;;;;;;4.10;1.52;;;;;;;18.14;42.40;101881.84;4992496;28;20184;-68
2022/08/13 00:39:21;;;;;;;9.60;1.45;;;;;;;18.10;42.63;101882.09;4997741;28;20060;-68
2022/08/13 00:41:47;;;;;;;2.88;1.55;;;;;;;18.04;42.56;101889.41;4994108;28;20778;-68
2022/08/13 00:44:14;;;;;;;5.32;1.95;;;;;;;18.10;42.47;101887.41;4994349;28;20076;-68
2022/08/13 00:46:41;;;;;;;3.13;1.70;;;;;;;17.97;42.76;101890.69;4998150;28;20029;-69
2022/08/13 00:49:08;;;;;;;2.38;1.63;;;;;;;17.94;42.86;101882.06;4998534;28;20045;-66
2022/08/13 00:51:35;;;;;;;2.97;1.58;;;;;;;17.89;42.79;101890.25;4996597;28;20092;-67
2022/08/13 00:54:03;;;;;;;3.88;1.67;;;;;;;17.85;43.00;101888.75;4991981;28;20542;-66
2022/08/13 00:56:34;;;;;;;3.13;1.83;;;;;;;17.79;43.06;101878.50;4996066;28;20127;-67
2022/08/13 00:59:07;;;;;;;4.03;1.13;;;;;;;17.82;42.87;101889.75;4995150;28;20041;-67
2022/08/13 01:01:35;;;;;;;3.85;1.02;;;;;;;17.79;42.90;101878.50;4995529;28;20118;-70
2022/08/13 01:04:03;;;;;;;5.20;1.90;;;;;;;17.74;43.05;101880.53;4992923;28;20208;-67
2022/08/13 01:06:30;;;;;;;4.25;1.35;;;;;;;17.63;43.44;101887.28;4999409;28;20164;-68
2022/08/13 01:08:56;;;;;;;5.25;1.88;;;;;;;17.57;43.57;101879.66;4991965;28;20133;-68
2022/08/13 01:11:23;;;;;;;2.05;1.30;;;;;;;17.43;43.80;101890.94;5008410;28;20034;-67
2022/08/13 01:13:51;;;;;;;3.75;1.88;;;;;;;17.36;44.06;101889.56;4990324;28;20586;-68
2022/08/13 01:16:18;;;;;;;6.38;1.80;;;;;;;17.31;44.34;101888.94;4996528;28;20022;-67
2022/08/13 01:18:47;;;;;;;2.22;1.20;;;;;;;17.29;44.42;101885.56;4992567;28;20493;-67
2022/08/13 01:21:16;;;;;;;2.20;1.70;;;;;;;17.38;43.90;101882.41;4994384;28;20034;-69
2022/08/13 01:23:46;;;;;;;2.00;1.60;;;;;;;17.33;44.03;101884.44;4990804;28;20054;-69
2022/08/13 01:26:17;;;;;;;2.95;1.77;;;;;;;17.23;44.33;101889.34;4993643;28;20466;-67
2022/08/13 01:28:44;;;;;;;4.07;1.70;;;;;;;17.13;44.34;101887.25;4992164;28;20124;-68
2022/08/13 01:31:13;;;;;;;3.90;2.03;;;;;;;17.03;44.89;101881.63;4997435;28;20061;-69
2022/08/13 01:33:43;;;;;;;5.63;2.45;;;;;;;17.01;45.25;101883.47;5004866;28;20049;-67
2022/08/13 01:36:10;;;;;;;2.47;1.48;;;;;;;16.98;45.21;101883.66;5013401;28;20103;-68
2022/08/13 01:38:36;;;;;;;2.30;1.50;;;;;;;16.95;45.18;101876.72;4997242;28;20068;-67
2022/08/13 01:41:04;;;;;;;2.67;1.60;;;;;;;16.93;45.46;101883.00;4992877;28;20128;-67
2022/08/13 01:43:31;;;;;;;2.38;1.95;;;;;;;16.83;46.06;101883.47;4994196;28;20042;-68
2022/08/13 01:45:59;;;;;;;5.03;1.85;;;;;;;16.69;46.45;101888.56;4993335;28;20046;-69
2022/08/13 01:51:23;;;;;;;2.30;1.50;;;;;;;16.86;45.75;101890.38;4993762;28;20792;-66
2022/08/13 01:53:51;;;;;;;1.42;0.98;;;;;;;16.91;45.72;101885.75;4988952;28;20105;-66
2022/08/13 01:56:26;;;;;;;2.20;1.38;;;;;;;16.87;45.83;101880.66;4996278;28;20510;-68
2022/08/13 01:58:58;;;;;;;2.45;1.90;;;;;;;16.79;46.16;101879.28;4990013;28;20076;-69
2022/08/13 02:01:27;;;;;;;2.70;1.83;;;;;;;16.76;46.03;101884.72;4994783;28;20510;-68
2022/08/13 02:03:56;;;;;;;6.03;1.80;;;;;;;16.76;46.14;101882.09;4987514;28;20164;-66
2022/08/13 02:06:27;;;;;;;3.42;1.38;;;;;;;16.70;46.39;101873.59;4995641;28;20038;-67
2022/08/13 02:08:59;;;;;;;4.85;2.13;;;;;;;16.59;46.83;101866.19;4990411;28;20056;-67
2022/08/13 02:11:29;;;;;;;6.03;2.05;;;;;;;16.56;47.08;101869.84;4996850;28;20049;-66
2022/08/13 02:13:56;;;;;;;3.80;1.73;;;;;;;16.59;46.98;101871.47;4989585;28;20029;-67
2022/08/13 02:16:21;;;;;;;2.95;1.65;;;;;;;16.47;48.09;101877.38;4994960;28;20084;-68
2022/08/13 02:18:49;;;;;;;3.25;2.03;;;;;;;16.41;47.74;101871.44;4989491;28;20597;-67
2022/08/13 02:21:15;;;;;;;3.28;2.13;;;;;;;16.39;48.05;101878.59;4991443;28;20034;-68
2022/08/13 02:23:41;;;;;;;3.47;1.85;;;;;;;16.46;48.01;101879.13;4987919;28;20042;-67
2022/08/13 02:26:07;;;;;;;4.57;1.40;;;;;;;16.52;47.46;101878.84;4990999;28;20061;-67
2022/08/13 02:28:39;;;;;;;5.95;2.60;;;;;;;16.58;47.61;101869.78;4991459;28;20057;-68
2022/08/13 02:31:06;;;;;;;2.60;1.70;;;;;;;16.64;47.15;101877.38;4995855;28;20034;-67
2022/08/13 02:33:33;;;;;;;4.32;1.80;;;;;;;16.55;47.27;101875.19;4989608;28;20041;-67
2022/08/13 02:35:59;;;;;;;2.90;1.55;;;;;;;16.50;47.40;101880.69;4996787;28;20041;-68
2022/08/13 02:38:24;;;;;;;2.10;1.23;;;;;;;16.44;47.60;101873.06;4992477;28;20049;-68
2022/08/13 02:43:59;;;;;;;9.02;2.13;;;;;;;16.35;47.80;101882.31;4950114;28;20056;-70
2022/08/13 02:46:26;;;;;;;1.60;1.17;;;;;;;16.38;47.91;101881.31;4955170;28;20034;-68
2022/08/13 02:48:52;;;;;;;2.08;1.50;;;;;;;16.29;48.19;101885.25;4970573;28;20537;-67
2022/08/13 02:51:20;;;;;;;5.00;1.58;;;;;;;16.21;48.43;101885.59;4993752;28;20033;-67
2022/08/13 02:53:47;;;;;;;2.45;1.25;;;;;;;16.24;48.33;101881.97;5004923;28;20064;-67
2022/08/13 02:56:12;;;;;;;3.30;1.65;;;;;;;16.22;48.20;101883.84;5016868;28;20042;-68
2022/08/13 02:58:41;;;;;;;5.50;1.75;;;;;;;16.14;48.54;101886.84;5030034;28;20094;-69
2022/08/13 03:01:10;;;;;;;1.92;1.30;;;;;;;16.16;48.84;101881.50;5030763;28;20574;-69
2022/08/13 03:03:36;;;;;;;2.58;1.70;;;;;;;16.13;48.67;101884.25;4998255;28;20045;-67
2022/08/13 03:06:02;;;;;;;5.40;1.75;;;;;;;16.14;48.70;101883.34;4993563;28;20599;-70
2022/08/13 03:08:28;;;;;;;2.67;2.03;;;;;;;16.06;48.81;101886.34;5008960;28;20055;-69
2022/08/13 03:10:55;;;;;;;5.22;1.73;;;;;;;15.98;48.87;101884.03;5012057;28;20037;-67
2022/08/13 03:13:23;;;;;;;7.93;1.73;;;;;;;15.98;48.75;101878.75;5013930;28;20325;-66
2022/08/13 03:15:52;;;;;;;2.67;1.48;;;;;;;15.98;48.79;101878.75;5013783;28;20311;-67
2022/08/13 03:18:18;;;;;;;5.40;2.00;;;;;;;15.98;49.07;101884.03;5016927;28;20287;-66
2022/08/13 03:20:44;;;;;;;3.88;2.45;;;;;;;15.97;48.94;101884.09;5014863;28;20776;-66
2022/08/13 03:23:09;;;;;;;3.40;1.98;;;;;;;15.95;49.03;101883.31;5019005;28;20054;-66
2022/08/13 03:25:35;;;;;;;1.95;1.60;;;;;;;15.90;49.25;101886.16;5015913;28;20392;-67
2022/08/13 03:28:02;;;;;;;4.95;2.50;;;;;;;15.68;49.64;101896.00;5012962;28;20063;-66
2022/08/13 03:30:28;;;;;;;2.70;1.95;;;;;;;15.67;49.92;101894.28;5013112;28;20033;-67
2022/08/13 03:32:54;;;;;;;3.58;2.10;;;;;;;15.67;49.83;101894.28;5012435;28;20183;-67
2022/08/13 03:35:22;;;;;;;3.83;2.03;;;;;;;15.73;49.62;101899.28;5015188;28;20092;-67
2022/08/13 03:37:54;;;;;;;3.70;2.35;;;;;;;15.70;49.49;101888.88;5006528;28;20116;-66
2022/08/13 03:40:22;;;;;;;3.10;1.77;;;;;;;15.77;49.33;101900.84;4998656;28;20801;-67
2022/08/13 03:42:49;;;;;;;3.10;2.03;;;;;;;15.86;49.01;101895.13;5001258;28;20046;-69
2022/08/13 03:45:16;;;;;;;2.88;2.03;;;;;;;15.80;48.93;101903.34;5000654;28;20072;-68
2022/08/13 03:47:42;;;;;;;2.97;2.13;;;;;;;15.69;49.07;101893.28;5004707;28;20620;-68
2022/08/13 03:50:11;;;;;;;2.42;2.15;;;;;;;15.62;49.23;101897.13;5014449;28;20068;-67
2022/08/13 03:52:38;;;;;;;4.25;2.42;;;;;;;15.70;48.86;101892.34;5015797;28;20468;-66
2022/08/13 03:55:10;;;;;;;2.58;1.73;;;;;;;15.82;48.64;101898.88;5013536;28;20057;-67
2022/08/13 03:57:40;;;;;;;3.88;2.25;;;;;;;15.83;48.53;101900.56;5014947;28;20072;-66
2022/08/13 04:00:10;;;;;;;3.95;1.95;;;;;;;15.80;48.56;101901.56;5016043;28;20120;-67
2022/08/13 04:02:41;;;;;;;2.65;1.88;;;;;;;15.85;48.52;101901.34;5020519;28;20403;-67
2022/08/13 04:05:16;;;;;;;2.88;1.75;;;;;;;15.75;48.33;101897.41;5016750;28;20126;-67
2022/08/13 04:07:43;;;;;;;5.50;2.25;;;;;;;15.58;48.78;101896.41;5013979;28;20100;-68
2022/08/13 04:10:11;;;;;;;4.10;2.05;;;;;;;15.66;48.56;101892.56;5015657;28;20033;-67
2022/08/13 04:12:37;;;;;;;2.67;1.80;;;;;;;15.70;48.52;101891.50;5028149;28;20675;-66
2022/08/13 04:15:03;;;;;;;2.08;1.88;;;;;;;15.68;48.63;101899.47;5013508;28;20045;-67
2022/08/13 04:17:29;;;;;;;3.22;1.13;;;;;;;15.66;48.53;101895.19;5015568;28;20804;-66
2022/08/13 04:19:57;;;;;;;2.30;1.40;;;;;;;15.66;48.69;101890.81;5012476;28;20069;-66
2022/08/13 04:22:23;;;;;;;5.25;2.00;;;;;;;15.68;48.74;101896.00;5013585;28;20539;-65
2022/08/13 04:24:50;;;;;;;2.10;1.25;;;;;;;15.67;48.73;101889.03;5014362;28;20045;-69
2022/08/13 04:27:15;;;;;;;4.47;1.85;;;;;;;15.71;48.53;101890.59;5014137;28;20056;-71
2022/08/13 04:29:41;;;;;;;2.38;2.15;;;;;;;15.68;48.54;101894.19;5012170;28;20041;-70
2022/08/13 04:32:06;;;;;;;2.85;2.17;;;;;;;15.59;48.63;101898.13;5016244;28;20139;-70
2022/08/13 04:34:34;;;;;;;2.50;1.48;;;;;;;15.59;48.70;101895.50;5016522;28;20043;-70
2022/08/13 04:37:01;;;;;;;3.47;1.65;;;;;;;15.70;48.61;101900.25;5014755;28;20584;-69
2022/08/13 04:39:27;;;;;;;2.95;1.15;;;;;;;15.77;48.43;101895.56;5015446;28;20049;-69
2022/08/13 04:41:53;;;;;;;2.33;1.40;;;;;;;15.84;48.32;101891.75;5014191;28;20034;-69
2022/08/13 04:44:19;;;;;;;2.25;1.52;;;;;;;15.81;48.13;101897.13;5014725;28;20192;-65
2022/08/13 04:46:45;;;;;;;2.40;1.30;;;;;;;15.89;48.24;101894.16;5005777;28;20071;-71
2022/08/13 04:49:12;;;;;;;3.20;1.65;;;;;;;15.98;48.11;101884.03;5013717;28;20045;-71
2022/08/13 04:51:38;;;;;;;3.10;1.90;;;;;;;15.93;48.12;101886.03;5015812;28;20044;-69
2022/08/13 04:54:04;;;;;;;2.20;1.90;;;;;;;15.99;47.69;101885.75;5012533;28;20052;-70
2022/08/13 04:56:30;;;;;;;3.20;1.85;;;;;;;15.99;47.91;101891.03;5016996;28;20032;-68
2022/08/13 04:58:56;;;;;;;3.80;1.75;;;;;;;16.09;47.54;101890.63;4995802;28;20060;-69
2022/08/13 05:01:21;;;;;;;2.30;1.75;;;;;;;16.19;47.15;101886.59;4997258;28;20029;-69
2022/08/13 05:03:47;;;;;;;2.22;2.00;;;;;;;16.26;47.06;101882.75;5008669;28;20052;-69
2022/08/13 05:06:19;;;;;;;3.20;2.35;;;;;;;16.46;46.78;101878.28;5012557;28;20998;-68
2022/08/13 05:08:51;;;;;;;2.67;2.13;;;;;;;16.52;46.32;101878.00;5012018;28;20069;-68
2022/08/13 05:11:19;;;;;;;3.70;2.58;;;;;;;16.63;45.91;101875.69;5016013;28;20168;-69
2022/08/13 05:13:54;;;;;;;3.28;1.92;;;;;;;16.76;45.49;101887.38;5010369;28;20598;-68
2022/08/13 05:16:20;;;;;;;5.45;1.98;;;;;;;16.86;45.24;101886.91;5013151;28;20044;-69
2022/08/13 05:18:54;;;;;;;1.92;1.58;;;;;;;16.97;44.91;101892.47;5007875;28;20042;-69
2022/08/13 05:21:25;;;;;;;3.13;1.70;;;;;;;17.04;44.45;101885.94;5013259;28;20171;-67
2022/08/13 05:23:58;;;;;;;3.97;2.13;;;;;;;17.17;44.04;101886.19;5007238;28;20600;-69
2022/08/13 05:26:31;;;;;;;2.38;1.42;;;;;;;17.26;43.49;101887.47;5011938;28;20553;-68
2022/08/13 05:29:05;;;;;;;3.45;1.58;;;;;;;17.43;43.27;101887.47;4988062;28;20601;-68
2022/08/13 05:31:34;;;;;;;1.52;1.33;;;;;;;17.89;42.60;101884.13;5012158;28;20036;-68
2022/08/13 05:34:09;;;;;;;1.33;1.23;;;;;;;19.73;39.35;101883.94;4988299;28;20433;-67
2022/08/13 05:36:43;;;;;;;6.20;1.63;;;;;;;21.11;35.90;101881.97;5013907;28;20098;-67
2022/08/13 05:39:15;;;;;;;2.20;1.40;;;;;;;21.38;34.78;101881.88;5023725;28;20065;-68
2022/08/13 05:41:51;;;;;;;3.78;1.52;;;;;;;21.00;34.63;101876.53;5014376;28;20064;-69
2022/08/13 05:44:16;;;;;;;3.67;1.23;;;;;;;20.85;34.94;101873.16;4999388;28;20072;-69
2022/08/13 05:46:58;;;;;;;2.55;2.10;;;;;;;22.56;33.40;101878.63;5010314;28;20049;-66
2022/08/13 05:49:35;;;;;;;3.08;1.40;;;;;;;25.14;28.36;101864.13;5008433;28;20053;-66
2022/08/13 05:52:01;;;;;;;4.68;1.00;;;;;;;26.73;25.98;101862.28;5010877;28;20511;-66
2022/08/13 05:54:39;;;;;;;3.53;1.60;;;;;;;27.45;24.40;101866.16;5013672;28;20116;-67
2022/08/13 05:57:18;;;;;;;2.08;1.20;;;;;;;28.56;23.04;101860.53;5001765;28;20045;-69
2022/08/13 06:05:30;;;;;;;3.55;1.20;;;;;;;30.83;19.92;101856.16;5011057;28;20033;-70
2022/08/13 06:07:57;;;;;;;8.90;1.52;;;;;;;30.74;19.91;101858.88;5002274;28;20072;-71
2022/08/13 06:10:30;;;;;;;3.50;1.33;;;;;;;30.76;19.86;101861.41;5014008;28;20033;-71
2022/08/13 06:13:01;;;;;;;1.40;0.90;;;;;;;31.93;19.22;101864.28;5012292;28;20042;-72
2022/08/13 06:15:35;;;;;;;4.15;1.27;;;;;;;31.83;18.41;101869.94;5012075;28;20033;-68
2022/08/13 06:18:06;;;;;;;3.00;1.17;;;;;;;32.66;17.48;101857.44;4990651;28;20041;-67
2022/08/13 06:20:36;;;;;;;1.75;1.02;;;;;;;33.23;17.69;101862.19;5012999;28;20047;-68
2022/08/13 06:23:07;;;;;;;1.40;1.05;;;;;;;31.23;18.83;101867.88;5000397;28;20080;-68
2022/08/13 06:25:45;;;;;;;2.42;1.45;;;;;;;30.77;18.90;101863.91;5002776;28;20049;-67
2022/08/13 06:28:16;;;;;;;8.30;1.10;;;;;;;30.83;19.53;101869.66;4994994;28;20057;-68
2022/08/13 06:30:50;;;;;;;1.75;1.17;;;;;;;31.79;18.96;101868.59;5002987;28;20821;-67
2022/08/13 06:33:22;;;;;;;4.75;1.02;;;;;;;31.88;18.35;101872.09;5010632;28;20049;-67
2022/08/13 06:36:00;;;;;;;6.97;0.95;;;;;;;31.97;18.19;101874.59;5010883;28;20036;-68
2022/08/13 06:38:32;;;;;;;5.10;1.48;;;;;;;31.95;18.66;101873.91;5025837;28;20049;-70
2022/08/13 06:41:03;;;;;;;5.88;0.93;;;;;;;32.86;18.33;101882.13;5012794;28;20037;-69
2022/08/13 06:43:41;;;;;;;2.38;1.23;;;;;;;34.12;16.61;101873.81;4987989;28;20120;-68
2022/08/13 06:46:18;;;;;;;2.22;0.88;;;;;;;35.39;15.60;101875.50;5010403;28;20125;-67
2022/08/13 06:49:02;;;;;;;8.77;0.90;;;;;;;34.64;15.92;101881.59;4975242;28;20050;-67
2022/08/13 06:51:33;;;;;;;2.67;0.85;;;;;;;35.04;15.88;101876.41;5033297;28;20052;-68
2022/08/13 06:54:01;;;;;;;2.25;0.85;;;;;;;34.54;15.89;101880.25;5017105;28;20521;-68
2022/08/13 06:56:39;;;;;;;3.40;0.70;;;;;;;33.63;16.42;101887.06;5015435;28;20621;-68
2022/08/13 06:59:26;;;;;;;5.95;0.90;;;;;;;33.29;16.37;101881.47;4997280;28;20045;-68
2022/08/13 07:02:03;;;;;;;1.48;0.68;;;;;;;33.80;17.01;101886.88;5000776;28;20048;-66
2022/08/13 07:04:33;;;;;;;4.57;0.70;;;;;;;34.05;16.15;101874.59;5013354;28;20034;-67
2022/08/13 07:07:02;;;;;;;2.20;1.15;;;;;;;33.63;16.24;101878.09;4998195;28;20511;-73
2022/08/13 07:09:37;;;;;;;4.45;0.73;;;;;;;33.24;16.23;101890.97;5001599;28;20407;-73
2022/08/13 07:12:07;;;;;;;1.35;0.73;;;;;;;33.19;17.09;101888.00;5002541;28;20033;-71
2022/08/13 07:14:49;;;;;;;6.20;1.00;;;;;;;33.03;16.95;101886.31;5014162;28;20041;-71
2022/08/13 07:17:18;;;;;;;4.65;1.17;;;;;;;33.91;16.93;101886.38;4984382;28;20057;-73
2022/08/13 07:19:56;;;;;;;4.20;1.50;;;;;;;33.81;16.55;101880.41;4982127;28;20089;-69
2022/08/13 07:22:26;;;;;;;3.35;0.88;;;;;;;34.27;15.82;101891.72;4973543;28;20207;-69
2022/08/13 07:24:54;;;;;;;3.78;1.27;;;;;;;34.06;16.82;101884.44;5010595;28;20049;-69
2022/08/13 07:27:32;;;;;;;2.08;0.85;;;;;;;34.89;15.48;101879.25;5004342;28;20527;-69
2022/08/13 07:30:00;;;;;;;1.48;0.70;;;;;;;35.01;15.62;101876.81;4992978;28;20048;-70
2022/08/13 07:32:32;;;;;;;4.03;0.60;;;;;;;35.67;14.82;101884.41;4968061;28;20266;-70
2022/08/13 07:35:04;;;;;;;2.17;0.50;;;;;;;35.84;14.34;101886.75;4979617;28;20450;-69
2022/08/13 07:37:30;;;;;;;3.35;0.98;;;;;;;35.92;13.90;101889.28;4990522;28;20116;-69
2022/08/13 07:39:59;;;;;;;4.25;0.70;;;;;;;36.34;13.77;101889.97;5012814;28;20552;-69
2022/08/13 07:42:36;;;;;;;0.80;0.50;;;;;;;36.70;13.51;101896.88;4999783;28;20107;-69
2022/08/13 07:45:11;;;;;;;4.45;0.47;;;;;;;37.31;12.95;101893.72;4981731;28;20046;-70
2022/08/13 07:47:40;;;;;;;3.33;1.15;;;;;;;38.13;11.84;101891.16;4969746;28;20507;-70
2022/08/13 07:50:11;;;;;;;1.60;0.63;;;;;;;38.10;12.10;101893.47;4993870;28;20402;-70
2022/08/13 07:52:40;;;;;;;1.20;0.40;;;;;;;37.85;12.44;101896.19;4991032;28;20061;-70
2022/08/13 07:55:18;;;;;;;1.23;0.47;;;;;;;36.88;13.31;101901.63;4992311;28;20025;-71
2022/08/13 07:57:49;;;;;;;3.10;0.52;;;;;;;36.11;13.43;101903.94;4983100;28;20045;-69
2022/08/13 08:00:29;;;;;;;4.88;0.70;;;;;;;36.70;13.23;101902.31;4996003;28;20026;-70
2022/08/13 08:03:14;;;;;;;1.42;0.50;;;;;;;38.68;12.04;101890.47;4968140;28;20125;-71
2022/08/13 08:05:48;;;;;;;0.93;0.50;;;;;;;39.28;10.23;101897.97;4991642;28;20033;-70
2022/08/13 08:08:17;;;;;;;3.55;0.43;;;;;;;37.80;11.34;101890.56;4988196;28;20392;-70
2022/08/13 08:10:48;;;;;;;3.38;0.45;;;;;;;38.04;11.73;101900.69;4991983;28;20041;-70
2022/08/13 08:13:16;;;;;;;0.90;0.32;;;;;;;38.06;11.39;101895.84;4976886;28;20053;-71
2022/08/13 08:15:47;;;;;;;2.40;0.40;;;;;;;38.47;11.26;101899.91;4991433;28;20502;-70
2022/08/13 08:18:21;;;;;;;2.25;0.47;;;;;;;39.12;11.00;101899.44;4977972;28;20054;-69
2022/08/13 08:20:49;;;;;;;3.95;0.40;;;;;;;38.55;11.26;101901.50;4991726;28;20063;-70
2022/08/13 08:23:19;;;;;;;1.95;0.40;;;;;;;39.06;10.80;101892.16;4983972;28;20034;-69
2022/08/13 08:25:54;;;;;;;;;;;;;;;38.35;11.80;101901.72;4995968;28;20033;-70
2022/08/13 08:28:32;;;;;;;3.15;0.30;;;;;;;38.65;11.09;101892.81;4982585;28;19973;-70
2022/08/13 08:31:21;;;;;;;0.95;0.30;;;;;;;39.49;10.18;101901.28;4989311;28;20047;-70
2022/08/13 08:34:16;;;;;;;0.50;0.40;;;;;;;39.01;10.79;101897.47;4953090;28;20088;-70
2022/08/13 08:36:55;;;;;;;0.80;0.25;;;;;;;40.61;10.63;101904.13;4976178;28;20038;-71
2022/08/13 08:45:13;;;;;;;0.95;0.50;;;;;;;39.53;10.43;101910.69;4985951;28;20290;-72
2022/08/13 08:48:09;;;;;;;;;;;;;;;;;;;;;
2022/08/13 08:50:35;;;;;;;3.95;0.38;;;;;;;39.03;10.10;101909.03;4987412;28;20386;-70
2022/08/13 08:53:21;;;;;;;2.17;0.40;;;;;;;38.54;10.68;101918.94;4970848;28;20034;-71
2022/08/13 08:55:54;;;;;;;2.67;0.47;;;;;;;37.72;11.49;101911.59;4986105;28;20506;-69
2022/08/13 08:58:28;;;;;;;3.85;0.50;;;;;;;36.94;12.10;101914.38;4964870;28;20136;-70
2022/08/13 09:01:10;;;;;;;2.92;0.57;;;;;;;37.05;13.32;101910.19;4984543;28;20033;-70
2022/08/13 09:03:43;;;;;;;2.15;0.50;;;;;;;37.58;12.04;101900.97;5003316;28;20361;-70
2022/08/13 09:06:23;;;;;;;2.97;0.60;;;;;;;37.51;11.67;101898.28;4988074;28;20454;-69
2022/08/13 09:09:01;;;;;;;3.40;0.30;;;;;;;37.26;12.14;101904.44;4977843;28;20045;-70
2022/08/13 09:11:36;;;;;;;2.58;0.50;;;;;;;37.24;11.69;101903.00;4990256;28;20044;-71
2022/08/13 09:14:12;;;;;;;3.33;0.35;;;;;;;36.11;12.60;101902.06;4975821;28;20053;-70
2022/08/13 09:16:53;;;;;;;1.08;0.30;;;;;;;35.71;11.77;101891.13;4988526;28;20065;-70
2022/08/13 09:19:21;;;;;;;;;;;;;;;34.02;13.84;101893.97;4989695;28;20538;-70
2022/08/13 09:21:52;;;;;;;2.05;0.40;;;;;;;34.77;13.62;101896.28;4972662;28;19918;-71
2022/08/13 09:24:25;;;;;;;1.27;0.40;;;;;;;33.66;14.83;101896.72;4979712;28;20135;-70
2022/08/13 09:27:30;;;;;;;0.98;0.45;;;;;;;33.12;13.92;101895.16;4990096;28;20410;-70
2022/08/13 09:29:58;;;;;;;3.58;0.30;;;;;;;32.74;14.46;101894.38;4987557;28;20031;-71
2022/08/13 09:32:36;;;;;;;1.13;0.20;;;;;;;32.34;15.01;101897.28;4986222;28;20129;-70
2022/08/13 09:35:15;;;;;;;4.03;0.30;;;;;;;32.05;15.22;101891.75;4988493;28;20430;-71
2022/08/13 09:37:44;;;;;;;1.48;0.30;;;;;;;31.93;15.50;101900.28;4964438;28;20426;-71
2022/08/13 09:40:17;;;;;;;2.65;0.50;;;;;;;31.88;15.68;101899.13;5009692;28;20037;-71
2022/08/13 09:42:57;;;;;;;2.17;0.30;;;;;;;31.93;15.93;101894.88;4978228;28;20061;-71
2022/08/13 09:45:50;;;;;;;3.88;0.40;;;;;;;32.28;15.54;101894.47;4998685;28;20487;-71
2022/08/13 09:48:38;;;;;;;;;;;;;;;;;;;;;
2022/08/13 09:51:37;;;;;;;1.88;0.93;;;;;;;31.71;15.33;101892.97;4988009;28;20034;-70
2022/08/13 09:54:24;;;;;;;0.63;0.20;;;;;;;32.83;14.76;101891.47;4952515;28;20379;-71
2022/08/13 09:56:55;;;;;;;3.30;0.40;;;;;;;32.71;14.20;101884.78;4975050;28;20038;-71
2022/08/13 09:59:26;;;;;;;1.55;0.30;;;;;;;32.09;15.24;101891.22;4975425;28;20037;-70
2022/08/13 10:02:15;;;;;;;1.77;0.50;;;;;;;32.25;15.66;101879.41;4986427;28;20871;-70
2022/08/13 10:04:58;;;;;;;2.58;0.60;;;;;;;31.75;14.77;101878.91;4966655;28;20037;-69
2022/08/13 10:07:29;;;;;;;4.15;0.30;;;;;;;31.68;15.31;101883.38;4992773;28;20582;-70
2022/08/13 10:10:10;;;;;;;;;;;;;;;;;;;;;
2022/08/13 10:13:07;;;;;;;;;;;;;;;;;;;;;
2022/08/13 10:15:45;;;;;;;;;;;;;;;;;;;;;
2022/08/13 10:18:18;;;;;;;0.85;0.30;;;;;;;31.44;14.81;101860.00;4987944;28;20046;-70
2022/08/13 10:21:00;;;;;;;0.55;0.30;;;;;;;31.74;14.56;101865.56;4989509;28;20209;-70
2022/08/13 10:23:31;;;;;;;4.03;0.30;;;;;;;31.81;14.43;101863.88;4964006;28;20057;-68
2022/08/13 10:26:04;;;;;;;1.17;0.93;;;;;;;32.06;14.41;101852.91;4991227;28;20351;-70
2022/08/13 10:28:44;;;;;;;1.50;0.40;;;;;;;32.38;14.42;101857.19;4983506;28;20408;-70
2022/08/13 10:31:28;;;;;;;4.05;0.40;;;;;;;32.87;14.00;101842.34;4991976;28;20426;-70
2022/08/13 10:34:04;;;;;;;0.90;0.45;;;;;;;33.00;14.29;101845.22;4976667;28;20061;-71
2022/08/13 10:36:48;;;;;;;1.02;0.30;;;;;;;33.02;13.96;101848.59;4993127;28;20038;-69
2022/08/13 10:39:25;;;;;;;3.28;0.40;;;;;;;31.89;14.10;101836.75;4980789;28;20191;-70
2022/08/13 10:41:52;;;;;;;0.70;0.40;;;;;;;32.45;13.98;101831.09;4978141;28;20031;-69
2022/08/13 10:45:13;;;;;;;;;;;;;;;;;;;;;
2022/08/13 10:48:02;;;;;;;0.60;0.45;;;;;;;33.48;13.87;101834.78;4992151;28;20057;-70
2022/08/13 10:50:42;;;;;;;0.80;0.50;;;;;;;32.96;14.29;101825.81;4997303;28;20518;-70
2022/08/13 10:53:55;;;;;;;3.13;0.50;;;;;;;32.73;14.04;101828.59;4984027;28;20066;-71
2022/08/13 10:56:11;;;;;;;;;;;;;;;;;;;;;
2022/08/13 10:58:51;;;;;;;1.63;0.30;;;;;;;32.02;14.43;101825.38;4983920;28;20216;-69
2022/08/13 11:01:24;;;;;;;0.90;0.40;;;;;;;32.44;14.20;101827.53;4998375;28;20034;-70
2022/08/13 11:04:05;;;;;;;0.43;0.28;;;;;;;32.33;14.41;101833.38;4956043;28;20054;-71
2022/08/13 11:06:40;;;;;;;1.30;0.52;;;;;;;31.82;14.76;101823.13;4997291;28;20133;-70
2022/08/13 11:09:11;;;;;;;1.05;0.52;;;;;;;32.23;14.58;101821.97;5002561;22;20054;-78
2022/08/13 11:11:37;;;;;;;1.80;0.35;;;;;;;32.47;14.41;101829.03;4978966;28;20043;-76
2022/08/13 11:14:02;;;;;;;2.35;0.50;;;;;;;32.09;14.10;101822.78;4990975;28;20104;-78
2022/08/13 11:19:14;;;;;;;0.70;0.43;;;;;;;31.64;15.05;101827.16;5005668;28;20061;-80
2022/08/13 11:21:43;;;;;;;0.70;0.32;;;;;;;32.30;14.43;101822.06;4970129;28;20038;-79
2022/08/13 11:24:09;;;;;;;0.60;0.25;;;;;;;32.55;14.77;101826.25;4981693;28;20042;-78
2022/08/13 11:26:35;;;;;;;0.80;0.43;;;;;;;33.08;14.54;101818.06;4983693;28;20034;-78
2022/08/13 11:29:00;;;;;;;5.60;0.60;;;;;;;33.12;13.74;101815.78;4979634;28;20054;-78
2022/08/13 11:31:26;;;;;;;0.52;0.32;;;;;;;32.54;14.40;101816.44;4968592;28;20045;-79
2022/08/13 11:33:51;;;;;;;0.57;0.40;;;;;;;32.48;14.45;101810.97;4966301;28;20113;-81
2022/08/13 11:36:17;;;;;;;3.13;0.30;;;;;;;32.27;14.49;101806.22;4963591;28;20415;-76
2022/08/13 11:38:42;;;;;;;0.70;0.50;;;;;;;32.38;14.59;101809.34;4968171;28;20137;-77
2022/08/13 11:41:08;;;;;;;1.75;0.40;;;;;;;32.87;14.18;101810.69;4964975;28;20038;-76
2022/08/13 11:43:34;;;;;;;1.98;0.50;;;;;;;33.16;14.04;101806.25;4967326;28;20116;-78
2022/08/13 11:45:59;;;;;;;4.05;0.43;;;;;;;32.66;13.67;101802.47;4988491;28;20034;-78
2022/08/13 11:48:25;;;;;;;4.07;0.45;;;;;;;31.91;14.63;101802.28;4971446;28;20046;-76
2022/08/13 11:50:52;;;;;;;0.95;0.30;;;;;;;31.61;15.25;101807.56;4988116;28;20034;-76
2022/08/13 11:53:20;;;;;;;1.23;0.40;;;;;;;31.96;14.82;101809.88;4972138;28;20043;-78
2022/08/13 11:55:45;;;;;;;2.85;0.50;;;;;;;31.64;15.51;101808.25;4967404;28;20135;-77
2022/08/13 11:58:11;;;;;;;2.17;0.60;;;;;;;31.93;15.04;101799.41;4966934;28;20154;-80
2022/08/13 12:00:39;;;;;;;0.80;0.30;;;;;;;31.65;15.66;101797.25;4985145;28;20108;-78
2022/08/13 12:03:05;;;;;;;1.05;0.57;;;;;;;32.05;16.02;101791.72;4993034;28;20069;-79
2022/08/13 12:05:31;;;;;;;3.38;0.77;;;;;;;32.33;15.71;101790.09;4983630;28;20026;-76
2022/08/13 12:07:57;;;;;;;1.10;0.70;;;;;;;32.49;15.24;101794.53;4987847;28;20052;-78
2022/08/13 12:10:23;;;;;;;1.13;0.60;;;;;;;31.88;15.47;101789.13;4989916;28;20038;-79
2022/08/13 12:12:49;;;;;;;2.58;0.60;;;;;;;31.71;16.25;101792.97;4980500;28;20089;-77
2022/08/13 12:15:15;;;;;;;4.10;0.70;;;;;;;31.79;16.08;101787.53;4968636;28;20066;-78
2022/08/13 12:17:43;;;;;;;1.50;0.93;;;;;;;31.29;16.75;101786.13;4964579;28;20588;-77